createdAt,value
2022-08-04T00:00:20.000Z,7.2
2022-08-04T00:01:25.000Z,7.3
2022-08-04T00:02:31.000Z,7.3
2022-08-04T00:03:37.000Z,7.3
2022-08-04T00:04:43.000Z,7.4
2022-08-04T00:05:49.000Z,7.2
2022-08-04T00:06:55.000Z,7.3
2022-08-04T00:08:01.000Z,7.2
2022-08-04T00:09:08.000Z,7.3
2022-08-04T00:10:14.000Z,7.2
2022-08-04T00:11:20.000Z,7.3
2022-08-04T00:13:32.000Z,7.3
2022-08-04T00:14:38.000Z,7.3
2022-08-04T00:15:43.000Z,7.5
2022-08-04T00:16:49.000Z,7.3
2022-08-04T00:17:55.000Z,7.5
2022-08-04T00:19:01.000Z,7.5
2022-08-04T00:20:07.000Z,7.3
2022-08-04T00:21:13.000Z,7.4
2022-08-04T00:22:19.000Z,7.5
2022-08-04T00:23:25.000Z,7.4
2022-08-04T00:24:31.000Z,7.5
2022-08-04T00:25:36.000Z,7.5
2022-08-04T00:26:42.000Z,7.4
2022-08-04T00:27:48.000Z,7.5
2022-08-04T00:28:54.000Z,7.4
2022-08-04T00:30:00.000Z,7.5
2022-08-04T00:31:06.000Z,7.4
2022-08-04T00:32:12.000Z,7.3
2022-08-04T00:33:18.000Z,7.2
2022-08-04T00:34:24.000Z,7.4
2022-08-04T00:35:30.000Z,7.4
2022-08-04T00:36:36.000Z,7.4
2022-08-04T00:37:42.000Z,7.5
2022-08-04T00:38:48.000Z,7.4
2022-08-04T00:39:54.000Z,7.5
2022-08-04T00:41:00.000Z,7.4
2022-08-04T00:42:06.000Z,7.5
2022-08-04T00:43:12.000Z,7.4
2022-08-04T00:44:18.000Z,7.4
2022-08-04T00:45:24.000Z,7.4
2022-08-04T00:46:30.000Z,7.4
2022-08-04T00:47:35.000Z,7.4
2022-08-04T00:48:41.000Z,7.3
2022-08-04T00:49:46.000Z,7.5
2022-08-04T00:50:51.000Z,7.4
2022-08-04T00:51:58.000Z,7.4
2022-08-04T00:53:04.000Z,7.4
2022-08-04T00:54:10.000Z,7.4
2022-08-04T00:55:16.000Z,7.5
2022-08-04T00:56:22.000Z,7.5
2022-08-04T00:57:28.000Z,7.4
2022-08-04T00:58:34.000Z,7.4
2022-08-04T00:59:40.000Z,7.5
2022-08-04T01:00:46.000Z,7.4
2022-08-04T01:01:51.000Z,7.4
2022-08-04T01:02:57.000Z,7.4
2022-08-04T01:04:03.000Z,7.5
2022-08-04T01:05:09.000Z,7.4
2022-08-04T01:06:15.000Z,7.5
2022-08-04T01:07:22.000Z,7.4
2022-08-04T01:08:28.000Z,7.4
2022-08-04T01:09:34.000Z,7.3
2022-08-04T01:10:40.000Z,7.4
2022-08-04T01:11:46.000Z,7.4
2022-08-04T01:12:52.000Z,7.4
2022-08-04T01:13:58.000Z,7.4
2022-08-04T01:15:04.000Z,7.4
2022-08-04T01:16:09.000Z,7.4
2022-08-04T01:18:21.000Z,7.4
2022-08-04T01:19:27.000Z,7.5
2022-08-04T01:20:33.000Z,7.4
2022-08-04T01:21:38.000Z,7.5
2022-08-04T01:22:44.000Z,7.5
2022-08-04T01:23:49.000Z,7.4
2022-08-04T01:24:54.000Z,7.4
2022-08-04T01:26:00.000Z,7.3
2022-08-04T01:27:06.000Z,7.4
2022-08-04T01:28:12.000Z,7.4
2022-08-04T01:29:18.000Z,7.3
2022-08-04T01:30:24.000Z,7.4
2022-08-04T01:31:30.000Z,7.4
2022-08-04T01:32:36.000Z,7.4
2022-08-04T01:33:42.000Z,7.5
2022-08-04T01:34:49.000Z,7.4
2022-08-04T01:35:55.000Z,7.4
2022-08-04T01:37:01.000Z,7.4
2022-08-04T01:38:07.000Z,7.4
2022-08-04T01:39:12.000Z,7.5
2022-08-04T01:40:18.000Z,7.4
2022-08-04T01:41:24.000Z,7.4
2022-08-04T01:42:30.000Z,7.4
2022-08-04T01:43:36.000Z,7.5
2022-08-04T01:44:42.000Z,7.5
2022-08-04T01:45:48.000Z,7.5
2022-08-04T01:46:53.000Z,7.5
2022-08-04T01:47:59.000Z,7.5
2022-08-04T01:49:04.000Z,7.4
2022-08-04T01:50:11.000Z,7.3
2022-08-04T01:51:17.000Z,7.3
2022-08-04T01:52:23.000Z,7.4
2022-08-04T01:53:28.000Z,7.4
2022-08-04T01:54:33.000Z,7.4
2022-08-04T01:55:39.000Z,7.4
2022-08-04T01:57:51.000Z,7.5
2022-08-04T01:58:57.000Z,7.4
2022-08-04T02:00:03.000Z,7.4
2022-08-04T02:01:09.000Z,7.4
2022-08-04T02:03:22.000Z,7.5
2022-08-04T02:04:28.000Z,7.4
2022-08-04T02:05:34.000Z,7.4
2022-08-04T02:06:40.000Z,7.4
2022-08-04T02:07:45.000Z,7.4
2022-08-04T02:08:50.000Z,7.5
2022-08-04T02:09:56.000Z,7.4
2022-08-04T02:11:02.000Z,7.7
2022-08-04T02:12:08.000Z,7.4
2022-08-04T02:13:14.000Z,7.4
2022-08-04T02:14:20.000Z,7.4
2022-08-04T02:15:26.000Z,7.5
2022-08-04T02:16:33.000Z,7.4
2022-08-04T02:17:39.000Z,7.3
2022-08-04T02:18:45.000Z,7.4
2022-08-04T02:19:50.000Z,7.4
2022-08-04T02:20:55.000Z,7.4
2022-08-04T02:22:01.000Z,7.4
2022-08-04T02:23:07.000Z,7.5
2022-08-04T02:25:19.000Z,7.4
2022-08-04T02:26:25.000Z,7.4
2022-08-04T02:27:31.000Z,7.4
2022-08-04T02:28:38.000Z,7.5
2022-08-04T02:29:44.000Z,7.5
2022-08-04T02:30:50.000Z,7.4
2022-08-04T02:31:56.000Z,7.4
2022-08-04T02:33:02.000Z,7.5
2022-08-04T02:34:08.000Z,7.5
2022-08-04T02:36:19.000Z,7.4
2022-08-04T02:37:24.000Z,7.5
2022-08-04T02:38:29.000Z,7.4
2022-08-04T02:39:35.000Z,7.4
2022-08-04T02:40:41.000Z,7.3
2022-08-04T02:41:47.000Z,7.5
2022-08-04T02:42:54.000Z,7.4
2022-08-04T02:45:06.000Z,7.4
2022-08-04T02:46:12.000Z,7.5
2022-08-04T02:47:18.000Z,7.4
2022-08-04T02:48:24.000Z,7.4
2022-08-04T02:49:30.000Z,7.5
2022-08-04T02:50:36.000Z,7.5
2022-08-04T02:51:42.000Z,7.4
2022-08-04T02:52:47.000Z,7.5
2022-08-04T02:53:53.000Z,7.5
2022-08-04T02:54:59.000Z,7.4
2022-08-04T02:56:05.000Z,7.5
2022-08-04T02:57:12.000Z,7.4
2022-08-04T02:58:18.000Z,7.4
2022-08-04T02:59:24.000Z,7.4
2022-08-04T03:00:30.000Z,7.3
2022-08-04T03:01:35.000Z,7.4
2022-08-04T03:02:40.000Z,7.4
2022-08-04T03:03:46.000Z,7.4
2022-08-04T03:04:52.000Z,7.4
2022-08-04T03:05:58.000Z,7.4
2022-08-04T03:07:04.000Z,7.5
2022-08-04T03:08:10.000Z,7.5
2022-08-04T03:09:16.000Z,7.4
2022-08-04T03:10:22.000Z,7.4
2022-08-04T03:11:29.000Z,7.4
2022-08-04T03:12:35.000Z,7.4
2022-08-04T03:13:41.000Z,7.4
2022-08-04T03:14:47.000Z,7.5
2022-08-04T03:15:53.000Z,7.4
2022-08-04T03:16:58.000Z,7.4
2022-08-04T03:18:04.000Z,7.4
2022-08-04T03:19:10.000Z,7.4
2022-08-04T03:20:16.000Z,7.4
2022-08-04T03:21:22.000Z,7.4
2022-08-04T03:22:28.000Z,7.5
2022-08-04T03:23:34.000Z,7.4
2022-08-04T03:24:40.000Z,7.5
2022-08-04T03:25:47.000Z,7.4
2022-08-04T03:26:53.000Z,7.5
2022-08-04T03:27:59.000Z,7.3
2022-08-04T03:29:05.000Z,7.4
2022-08-04T03:31:17.000Z,7.4
2022-08-04T03:32:22.000Z,7.4
2022-08-04T03:34:34.000Z,7.5
2022-08-04T03:35:39.000Z,7.3
2022-08-04T03:36:44.000Z,7.5
2022-08-04T03:38:56.000Z,7.3
2022-08-04T03:40:02.000Z,7.4
2022-08-04T03:42:13.000Z,7.4
2022-08-04T03:43:19.000Z,7.4
2022-08-04T03:45:31.000Z,7.4
2022-08-04T03:46:37.000Z,7.4
2022-08-04T03:47:43.000Z,7.4
2022-08-04T03:48:49.000Z,7.5
2022-08-04T03:49:55.000Z,7.4
2022-08-04T03:51:01.000Z,7.4
2022-08-04T03:53:13.000Z,7.4
2022-08-04T03:54:20.000Z,7.4
2022-08-04T03:55:25.000Z,7.4
2022-08-04T03:56:30.000Z,7.4
2022-08-04T03:57:36.000Z,7.5
2022-08-04T03:58:42.000Z,7.4
2022-08-04T03:59:48.000Z,7.4
2022-08-04T04:00:54.000Z,7.4
2022-08-04T04:02:00.000Z,7.4
2022-08-04T04:03:06.000Z,7.3
2022-08-04T04:04:12.000Z,7.4
2022-08-04T04:05:18.000Z,7.4
2022-08-04T04:06:24.000Z,7.5
2022-08-04T04:07:30.000Z,7.5
2022-08-04T04:08:35.000Z,7.4
2022-08-04T04:09:41.000Z,7.4
2022-08-04T04:10:47.000Z,7.4
2022-08-04T04:11:53.000Z,7.5
2022-08-04T04:12:59.000Z,7.5
2022-08-04T04:14:05.000Z,7.4
2022-08-04T04:15:11.000Z,7.4
2022-08-04T04:16:17.000Z,7.5
2022-08-04T04:17:23.000Z,7.5
2022-08-04T04:18:29.000Z,7.4
2022-08-04T04:19:36.000Z,7.4
2022-08-04T04:20:42.000Z,7.5
2022-08-04T04:21:48.000Z,7.5
2022-08-04T04:22:53.000Z,7.4
2022-08-04T04:23:59.000Z,7.5
2022-08-04T04:25:05.000Z,7.5
2022-08-04T04:26:11.000Z,7.4
2022-08-04T04:27:17.000Z,7.4
2022-08-04T04:28:23.000Z,7.4
2022-08-04T04:29:29.000Z,7.5
2022-08-04T04:30:34.000Z,7.4
2022-08-04T04:31:39.000Z,7.4
2022-08-04T04:32:45.000Z,7.5
2022-08-04T04:33:51.000Z,7.4
2022-08-04T04:34:56.000Z,7.4
2022-08-04T04:36:02.000Z,7.4
2022-08-04T04:37:08.000Z,7.4
2022-08-04T04:38:14.000Z,7.4
2022-08-04T04:39:20.413Z,7.4
2022-08-04T04:40:26.000Z,7.4
2022-08-04T04:41:32.000Z,7.5
2022-08-04T04:42:37.000Z,7.4
2022-08-04T04:43:43.000Z,7.4
2022-08-04T04:44:49.000Z,7.4
2022-08-04T04:45:55.000Z,7.5
2022-08-04T04:48:08.000Z,7.5
2022-08-04T04:49:14.000Z,7.5
2022-08-04T04:50:20.000Z,7.5
2022-08-04T04:51:26.000Z,7.4
2022-08-04T04:52:32.000Z,7.4
2022-08-04T04:53:38.000Z,7.4
2022-08-04T04:54:44.000Z,7.4
2022-08-04T04:55:50.000Z,7.4
2022-08-04T04:56:55.000Z,7.4
2022-08-04T04:58:01.000Z,7.5
2022-08-04T04:59:07.000Z,7.4
2022-08-04T05:00:13.000Z,7.4
2022-08-04T05:01:20.000Z,7.4
2022-08-04T05:02:26.000Z,7.4
2022-08-04T05:03:32.000Z,7.4
2022-08-04T05:04:38.000Z,7.5
2022-08-04T05:05:44.000Z,7.4
2022-08-04T05:06:50.000Z,7.4
2022-08-04T05:07:56.000Z,7.4
2022-08-04T05:09:02.000Z,7.5
2022-08-04T05:10:08.000Z,7.4
2022-08-04T05:11:13.000Z,7.4
2022-08-04T05:12:18.000Z,7.4
2022-08-04T05:13:24.000Z,7.4
2022-08-04T05:14:29.000Z,7.4
2022-08-04T05:15:35.000Z,7.3
2022-08-04T05:16:41.000Z,7.4
2022-08-04T05:18:53.000Z,7.4
2022-08-04T05:19:59.000Z,7.5
2022-08-04T05:21:05.000Z,7.5
2022-08-04T05:22:11.000Z,7.4
2022-08-04T05:23:17.000Z,7.4
2022-08-04T05:24:23.000Z,7.4
2022-08-04T05:25:29.000Z,7.4
2022-08-04T05:26:35.000Z,7.4
2022-08-04T05:27:41.000Z,7.4
2022-08-04T05:28:48.000Z,7.5
2022-08-04T05:29:53.000Z,7.4
2022-08-04T05:30:59.000Z,7.4
2022-08-04T05:32:05.000Z,7.4
2022-08-04T05:33:11.000Z,7.5
2022-08-04T05:34:17.000Z,7.6
2022-08-04T05:35:23.000Z,7.4
2022-08-04T05:36:29.000Z,7.4
2022-08-04T05:37:35.000Z,7.5
2022-08-04T05:38:41.000Z,7.5
2022-08-04T05:39:47.000Z,7.4
2022-08-04T05:40:53.000Z,7.3
2022-08-04T05:43:06.000Z,7.4
2022-08-04T05:44:11.000Z,7.3
2022-08-04T05:45:17.000Z,7.4
2022-08-04T05:46:23.000Z,7.5
2022-08-04T05:47:29.000Z,7.4
2022-08-04T05:48:35.000Z,7.3
2022-08-04T05:49:41.000Z,7.4
2022-08-04T05:50:47.000Z,7.5
2022-08-04T05:51:53.000Z,7.4
2022-08-04T05:54:05.000Z,7.4
2022-08-04T05:55:11.000Z,7.5
2022-08-04T05:56:17.000Z,7.4
2022-08-04T05:57:23.000Z,7.4
2022-08-04T05:58:29.000Z,7.4
2022-08-04T05:59:35.000Z,7.4
2022-08-04T06:00:41.000Z,7.4
2022-08-04T06:01:47.000Z,7.3
2022-08-04T06:02:53.000Z,7.4
2022-08-04T06:03:59.000Z,7.4
2022-08-04T06:05:05.000Z,7.4
2022-08-04T06:06:11.000Z,7.5
2022-08-04T06:07:17.000Z,7.4
2022-08-04T06:08:23.000Z,7.5
2022-08-04T06:09:29.000Z,7.5
2022-08-04T06:10:35.000Z,7.5
2022-08-04T06:11:41.000Z,7.4
2022-08-04T06:12:48.000Z,7.3
2022-08-04T06:13:53.000Z,7.5
2022-08-04T06:14:59.000Z,7.4
2022-08-04T06:16:05.000Z,7.4
2022-08-04T06:17:11.000Z,7.4
2022-08-04T06:18:17.000Z,7.5
2022-08-04T06:19:23.000Z,7.4
2022-08-04T06:20:29.000Z,7.4
2022-08-04T06:21:35.000Z,7.4
2022-08-04T06:22:41.000Z,7.5
2022-08-04T06:23:47.000Z,7.4
2022-08-04T06:24:53.000Z,7.4
2022-08-04T06:25:59.000Z,7.3
2022-08-04T06:27:06.000Z,7.4
2022-08-04T06:28:11.000Z,7.5
2022-08-04T06:29:17.000Z,7.5
2022-08-04T06:30:23.000Z,7.4
2022-08-04T06:31:29.000Z,7.5
2022-08-04T06:32:35.000Z,7.4
2022-08-04T06:33:41.000Z,7.4
2022-08-04T06:34:47.000Z,7.4
2022-08-04T06:35:53.000Z,7.4
2022-08-04T06:38:05.000Z,7.5
2022-08-04T06:39:11.000Z,7.4
2022-08-04T06:40:17.000Z,7.4
2022-08-04T06:41:24.000Z,7.4
2022-08-04T06:42:29.000Z,7.4
2022-08-04T06:43:35.000Z,7.4
2022-08-04T06:44:41.000Z,7.4
2022-08-04T06:46:53.000Z,7.5
2022-08-04T06:47:59.000Z,7.4
2022-08-04T06:49:05.000Z,7.4
2022-08-04T06:50:11.000Z,7.4
2022-08-04T06:51:17.000Z,7.5
2022-08-04T06:52:23.000Z,7.5
2022-08-04T06:53:29.000Z,7.4
2022-08-04T06:54:35.000Z,7.4
2022-08-04T06:55:41.000Z,7.5
2022-08-04T06:56:47.000Z,7.4
2022-08-04T06:57:53.000Z,7.4
2022-08-04T06:58:59.000Z,7.5
2022-08-04T07:00:05.000Z,7.4
2022-08-04T07:01:11.000Z,7.4
2022-08-04T07:02:17.000Z,7.4
2022-08-04T07:03:23.000Z,7.4
2022-08-04T07:04:29.000Z,7.5
2022-08-04T07:05:35.000Z,7.4
2022-08-04T07:06:41.000Z,7.4
2022-08-04T07:07:47.000Z,7.4
2022-08-04T07:08:53.000Z,7.4
2022-08-04T07:09:59.000Z,7.4
2022-08-04T07:11:06.000Z,7.3
2022-08-04T07:12:11.000Z,7.5
2022-08-04T07:13:17.000Z,7.3
2022-08-04T07:14:23.000Z,7.5
2022-08-04T07:15:29.000Z,7.4
2022-08-04T07:16:35.000Z,7.4
2022-08-04T07:17:41.000Z,7.4
2022-08-04T07:18:47.000Z,7.4
2022-08-04T07:19:53.000Z,7.4
2022-08-04T07:20:59.000Z,7.5
2022-08-04T07:22:05.000Z,7.4
2022-08-04T07:23:11.000Z,7.4
2022-08-04T07:25:24.000Z,7.4
2022-08-04T07:26:29.000Z,7.4
2022-08-04T07:27:35.000Z,7.5
2022-08-04T07:28:41.000Z,7.4
2022-08-04T07:29:47.000Z,7.4
2022-08-04T07:30:53.000Z,7.4
2022-08-04T07:33:05.000Z,7.5
2022-08-04T07:34:11.000Z,7.4
2022-08-04T07:35:17.000Z,7.5
2022-08-04T07:36:23.000Z,7.4
2022-08-04T07:37:29.000Z,7.4
2022-08-04T07:38:35.000Z,7.5
2022-08-04T07:39:42.000Z,7.3
2022-08-04T07:40:47.000Z,7.4
2022-08-04T07:41:53.000Z,7.4
2022-08-04T07:42:59.000Z,7.4
2022-08-04T07:44:05.000Z,7.3
2022-08-04T07:45:11.000Z,7.4
2022-08-04T07:46:17.000Z,7.4
2022-08-04T07:47:23.000Z,7.4
2022-08-04T07:48:29.000Z,7.4
2022-08-04T07:49:35.000Z,7.4
2022-08-04T07:50:41.000Z,7.5
2022-08-04T07:51:47.000Z,7.4
2022-08-04T07:52:53.000Z,7.4
2022-08-04T07:55:06.000Z,7.5
2022-08-04T07:56:11.000Z,7.4
2022-08-04T07:57:17.000Z,7.4
2022-08-04T07:58:23.000Z,7.5
2022-08-04T07:59:29.000Z,7.4
2022-08-04T08:00:35.000Z,7.4
2022-08-04T08:01:41.000Z,7.4
2022-08-04T08:02:47.000Z,7.4
2022-08-04T08:03:53.000Z,7.4
2022-08-04T08:04:59.000Z,7.4
2022-08-04T08:06:05.000Z,7.5
2022-08-04T08:07:11.000Z,7.4
2022-08-04T08:08:17.000Z,7.4
2022-08-04T08:09:24.000Z,7.3
2022-08-04T08:10:29.000Z,7.4
2022-08-04T08:11:35.000Z,7.4
2022-08-04T08:12:41.000Z,7.4
2022-08-04T08:13:47.000Z,7.4
2022-08-04T08:14:53.000Z,7.4
2022-08-04T08:17:05.000Z,7.4
2022-08-04T08:18:11.000Z,7.4
2022-08-04T08:19:17.000Z,7.4
2022-08-04T08:20:23.000Z,7.5
2022-08-04T08:21:29.000Z,7.4
2022-08-04T08:22:35.000Z,7.4
2022-08-04T08:23:41.000Z,7.4
2022-08-04T08:24:47.000Z,7.5
2022-08-04T08:25:52.000Z,7.5
2022-08-04T08:28:03.000Z,7.5
2022-08-04T08:29:08.000Z,7.4
2022-08-04T08:30:13.000Z,7.4
2022-08-04T08:31:19.000Z,7.4
2022-08-04T08:32:25.000Z,7.4
2022-08-04T08:33:31.000Z,7.4
2022-08-04T08:34:37.000Z,7.4
2022-08-04T08:35:43.000Z,7.4
2022-08-04T08:36:50.000Z,7.4
2022-08-04T08:37:56.000Z,7.4
2022-08-04T08:39:02.000Z,7.4
2022-08-04T08:40:08.000Z,7.4
2022-08-04T08:41:14.000Z,7.4
2022-08-04T08:42:20.000Z,7.4
2022-08-04T08:43:26.000Z,7.4
2022-08-04T08:44:31.000Z,7.4
2022-08-04T08:45:37.000Z,7.5
2022-08-04T08:46:43.000Z,7.5
2022-08-04T08:47:49.000Z,7.4
2022-08-04T08:48:56.000Z,7.4
2022-08-04T08:50:02.000Z,7.4
2022-08-04T08:51:08.000Z,7.3
2022-08-04T08:52:14.000Z,7.3
2022-08-04T08:53:20.000Z,7.3
2022-08-04T08:54:26.000Z,7.4
2022-08-04T08:55:32.000Z,7.2
2022-08-04T08:56:38.000Z,7.4
2022-08-04T08:57:44.000Z,7.4
2022-08-04T08:58:49.000Z,7.3
2022-08-04T08:59:55.000Z,7.2
2022-08-04T09:01:01.000Z,7.4
2022-08-04T09:02:07.000Z,7.3
2022-08-04T09:03:13.000Z,7.3
2022-08-04T09:04:20.000Z,7.4
2022-08-04T09:05:26.000Z,7.2
2022-08-04T09:06:32.000Z,7.3
2022-08-04T09:07:38.000Z,7.3
2022-08-04T09:08:44.000Z,7.2
2022-08-04T09:09:50.000Z,7.3
2022-08-04T09:10:56.000Z,7.3
2022-08-04T09:12:02.000Z,7.2
2022-08-04T09:13:07.000Z,7.2
2022-08-04T09:14:13.000Z,7.2
2022-08-04T09:15:19.000Z,7.2
2022-08-04T09:16:25.000Z,7.3
2022-08-04T09:17:31.000Z,7.4
2022-08-04T09:18:37.000Z,7.2
2022-08-04T09:19:44.000Z,7.3
2022-08-04T09:20:50.000Z,7.2
2022-08-04T09:23:02.000Z,7.3
2022-08-04T09:24:08.000Z,7.3
2022-08-04T09:25:14.000Z,7.3
2022-08-04T09:26:20.000Z,7.3
2022-08-04T09:27:25.000Z,7.3
2022-08-04T09:28:31.000Z,7.3
2022-08-04T09:29:37.000Z,7.3
2022-08-04T09:30:43.000Z,7.2
2022-08-04T09:31:50.000Z,7.2
2022-08-04T09:32:56.000Z,7.2
2022-08-04T09:34:02.000Z,7.2
2022-08-04T09:35:08.000Z,7.3
2022-08-04T09:36:14.000Z,7.3
2022-08-04T09:37:20.000Z,7.2
2022-08-04T09:38:26.000Z,7.1
2022-08-04T09:39:32.000Z,7.3
2022-08-04T09:40:38.000Z,7.2
2022-08-04T09:41:43.000Z,7.3
2022-08-04T09:42:49.000Z,7.3
2022-08-04T09:43:55.000Z,7.3
2022-08-04T09:46:07.000Z,7.2
2022-08-04T09:47:14.000Z,7.3
2022-08-04T09:48:20.000Z,7.3
2022-08-04T09:49:26.000Z,7.3
2022-08-04T09:50:32.000Z,7.2
2022-08-04T09:51:38.000Z,7.2
2022-08-04T09:52:44.000Z,7.3
2022-08-04T09:53:50.000Z,7.2
2022-08-04T09:54:56.000Z,7.3
2022-08-04T09:56:01.000Z,7.3
2022-08-04T09:57:07.000Z,7.3
2022-08-04T09:58:13.000Z,7.3
2022-08-04T09:59:19.000Z,7.3
2022-08-04T10:00:25.000Z,7.2
2022-08-04T10:01:31.000Z,7.3
2022-08-04T10:02:38.000Z,7.3
2022-08-04T10:03:44.000Z,7.2
2022-08-04T10:04:50.000Z,7.3
2022-08-04T10:07:02.000Z,7.3
2022-08-04T10:08:08.000Z,7.3
2022-08-04T10:09:14.000Z,7.3
2022-08-04T10:10:19.000Z,7.3
2022-08-04T10:11:25.000Z,7.2
2022-08-04T10:12:31.000Z,7.3
2022-08-04T10:13:37.000Z,7.3
2022-08-04T10:14:43.000Z,7.3
2022-08-04T10:15:49.000Z,7.3
2022-08-04T10:16:55.000Z,7.3
2022-08-04T10:18:02.000Z,7.3
2022-08-04T10:19:08.000Z,7.3
2022-08-04T10:20:14.000Z,7.3
2022-08-04T10:21:20.000Z,7.3
2022-08-04T10:22:26.000Z,7.2
2022-08-04T10:23:32.000Z,7.3
2022-08-04T10:24:37.000Z,7.2
2022-08-04T10:25:43.000Z,7.2
2022-08-04T10:26:49.000Z,7.3
2022-08-04T10:27:55.000Z,7.3
2022-08-04T10:29:02.000Z,7.2
2022-08-04T10:30:08.000Z,7
2022-08-04T10:31:14.000Z,7.2
2022-08-04T10:32:20.000Z,7
2022-08-04T10:33:26.000Z,7.3
2022-08-04T10:34:32.000Z,7.3
2022-08-04T10:35:38.000Z,7
2022-08-04T10:36:44.000Z,7.3
2022-08-04T10:37:50.000Z,7.3
2022-08-04T10:38:55.000Z,7.1
2022-08-04T10:40:01.000Z,7
2022-08-04T10:41:07.000Z,7
2022-08-04T10:42:13.000Z,7
2022-08-04T10:43:19.000Z,7
2022-08-04T10:44:26.000Z,7
2022-08-04T10:46:38.000Z,7.1
2022-08-04T10:47:44.000Z,7.1
2022-08-04T10:48:50.000Z,7
2022-08-04T10:51:02.000Z,7
2022-08-04T10:52:08.000Z,7.1
2022-08-04T10:53:13.000Z,7
2022-08-04T10:54:19.000Z,7
2022-08-04T10:55:25.000Z,7.1
2022-08-04T10:56:31.000Z,7
2022-08-04T10:57:37.000Z,7.1
2022-08-04T10:58:43.000Z,7
2022-08-04T10:59:50.000Z,7.1
2022-08-04T11:00:56.000Z,7
2022-08-04T11:02:02.000Z,7
2022-08-04T11:03:08.000Z,7
2022-08-04T11:04:14.000Z,7.1
2022-08-04T11:05:20.000Z,7
2022-08-04T11:06:26.000Z,7
2022-08-04T11:07:32.000Z,7
2022-08-04T11:08:37.000Z,7.1
2022-08-04T11:09:43.000Z,7.1
2022-08-04T11:10:49.000Z,7
2022-08-04T11:11:55.000Z,7
2022-08-04T11:13:02.000Z,7
2022-08-04T11:14:08.000Z,7
2022-08-04T11:15:13.000Z,7
2022-08-04T11:16:18.000Z,7.1
2022-08-04T11:17:23.000Z,7
2022-08-04T11:18:28.000Z,7
2022-08-04T11:19:34.000Z,7
2022-08-04T11:20:40.000Z,7
2022-08-04T11:21:46.000Z,7.1
2022-08-04T11:22:52.000Z,7
2022-08-04T11:23:58.000Z,7
2022-08-04T11:25:04.000Z,7
2022-08-04T11:26:10.000Z,7
2022-08-04T11:27:17.000Z,7.1
2022-08-04T11:28:23.000Z,7
2022-08-04T11:29:29.000Z,7
2022-08-04T11:30:35.000Z,7
2022-08-04T11:31:41.000Z,7
2022-08-04T11:32:46.000Z,7
2022-08-04T11:34:58.000Z,7.1
2022-08-04T11:36:04.000Z,7
2022-08-04T11:37:10.000Z,7
2022-08-04T11:38:16.000Z,7.1
2022-08-04T11:39:22.000Z,7
2022-08-04T11:40:28.000Z,6.9
2022-08-04T11:41:34.000Z,7
2022-08-04T11:42:41.000Z,7
2022-08-04T11:43:47.000Z,7
2022-08-04T11:44:53.000Z,7.1
2022-08-04T11:47:05.000Z,6.9
2022-08-04T11:48:10.000Z,7
2022-08-04T11:49:16.000Z,6.9
2022-08-04T11:50:22.000Z,6.8
2022-08-04T11:51:28.000Z,6.9
2022-08-04T11:52:34.000Z,6.9
2022-08-04T11:53:40.000Z,7
2022-08-04T11:54:46.000Z,6.9
2022-08-04T11:56:58.000Z,6.9
2022-08-04T11:58:03.000Z,6.8
2022-08-04T11:59:08.000Z,6.8
2022-08-04T12:00:13.000Z,6.9
2022-08-04T12:01:18.000Z,6.9
2022-08-04T12:02:24.000Z,6.9
2022-08-04T12:03:30.000Z,6.8
2022-08-04T12:04:35.000Z,6.9
2022-08-04T12:05:41.000Z,6.8
2022-08-04T12:07:53.000Z,6.8
2022-08-04T12:08:59.000Z,6.9
2022-08-04T12:10:06.000Z,7
2022-08-04T12:11:12.000Z,6.8
2022-08-04T12:12:18.000Z,6.9
2022-08-04T12:13:24.000Z,6.8
2022-08-04T12:14:30.000Z,6.9
2022-08-04T12:15:36.000Z,6.8
2022-08-04T12:16:42.000Z,6.8
2022-08-04T12:17:48.000Z,6.9
2022-08-04T12:18:53.000Z,6.8
2022-08-04T12:19:59.000Z,6.8
2022-08-04T12:21:05.000Z,6.9
2022-08-04T12:22:11.000Z,6.9
2022-08-04T12:23:17.000Z,6.9
2022-08-04T12:24:22.000Z,6.9
2022-08-04T12:25:28.000Z,6.9
2022-08-04T12:26:34.000Z,6.9
2022-08-04T12:27:40.000Z,6.9
2022-08-04T12:28:46.000Z,6.8
2022-08-04T12:29:52.000Z,6.8
2022-08-04T12:30:58.000Z,6.8
2022-08-04T12:32:04.000Z,6.9
2022-08-04T12:33:10.000Z,6.9
2022-08-04T12:34:16.000Z,6.9
2022-08-04T12:35:22.000Z,7
2022-08-04T12:36:28.000Z,6.8
2022-08-04T12:37:34.000Z,6.9
2022-08-04T12:38:41.000Z,6.9
2022-08-04T12:39:46.000Z,6.8
2022-08-04T12:40:52.000Z,6.9
2022-08-04T12:41:58.000Z,6.9
2022-08-04T12:43:04.000Z,6.9
2022-08-04T12:44:10.000Z,6.8
2022-08-04T12:45:16.000Z,6.9
2022-08-04T12:46:22.000Z,6.9
2022-08-04T12:47:28.000Z,6.8
2022-08-04T12:48:34.000Z,6.9
2022-08-04T12:49:40.000Z,6.8
2022-08-04T12:52:58.000Z,6.8
2022-08-04T12:54:04.000Z,6.9
2022-08-04T12:55:10.000Z,6.8
2022-08-04T12:56:16.000Z,6.9
2022-08-04T12:57:22.000Z,6.9
2022-08-04T12:58:28.000Z,6.9
2022-08-04T12:59:34.000Z,6.9
2022-08-04T13:00:40.000Z,6.7
2022-08-04T13:02:52.000Z,6.9
2022-08-04T13:03:57.000Z,6.8
2022-08-04T13:05:02.000Z,6.8
2022-08-04T13:06:08.000Z,6.9
2022-08-04T13:07:14.000Z,6.8
2022-08-04T13:08:21.000Z,6.9
2022-08-04T13:09:27.000Z,6.9
2022-08-04T13:10:33.000Z,6.8
2022-08-04T13:11:39.000Z,6.8
2022-08-04T13:12:45.000Z,6.9
2022-08-04T13:13:51.000Z,6.8
2022-08-04T13:14:57.000Z,6.8
2022-08-04T13:17:08.000Z,6.9
2022-08-04T13:18:13.000Z,6.8
2022-08-04T13:19:20.000Z,6.8
2022-08-04T13:20:26.000Z,6.9
2022-08-04T13:21:32.000Z,6.9
2022-08-04T13:22:38.000Z,6.9
2022-08-04T13:23:44.000Z,6.9
2022-08-04T13:24:50.000Z,6.8
2022-08-04T13:25:56.000Z,6.8
2022-08-04T13:27:02.000Z,6.8
2022-08-04T13:28:07.000Z,6.9
2022-08-04T13:29:13.000Z,6.9
2022-08-04T13:30:18.000Z,6.9
2022-08-04T13:31:23.000Z,6.9
2022-08-04T13:32:28.000Z,6.9
2022-08-04T13:33:35.000Z,6.9
2022-08-04T13:34:41.000Z,6.9
2022-08-04T13:35:47.000Z,6.9
2022-08-04T13:36:53.000Z,6.8
2022-08-04T13:37:59.000Z,6.8
2022-08-04T13:39:05.000Z,6.9
2022-08-04T13:40:11.000Z,6.8
2022-08-04T13:41:17.000Z,6.8
2022-08-04T13:42:23.000Z,6.9
2022-08-04T13:43:29.000Z,6.8
2022-08-04T13:44:35.000Z,6.9
2022-08-04T13:46:48.000Z,6.8
2022-08-04T13:47:53.000Z,6.7
2022-08-04T13:48:59.000Z,6.9
2022-08-04T13:50:05.000Z,6.8
2022-08-04T13:52:17.000Z,6.7
2022-08-04T13:53:22.000Z,6.7
2022-08-04T13:54:27.000Z,6.9
2022-08-04T13:55:33.000Z,6.8
2022-08-04T13:57:45.000Z,6.8
2022-08-04T13:58:51.000Z,6.7
2022-08-04T13:59:57.000Z,6.7
2022-08-04T14:01:04.000Z,6.8
2022-08-04T14:02:10.000Z,6.7
2022-08-04T14:03:16.000Z,6.8
2022-08-04T14:04:22.000Z,6.7
2022-08-04T14:05:28.000Z,6.8
2022-08-04T14:06:34.000Z,6.7
2022-08-04T14:08:46.000Z,6.7
2022-08-04T14:09:51.000Z,6.8
2022-08-04T14:10:56.000Z,6.6
2022-08-04T14:12:02.000Z,6.8
2022-08-04T14:13:08.000Z,6.6
2022-08-04T14:14:14.000Z,6.7
2022-08-04T14:15:20.000Z,6.7
2022-08-04T14:16:27.000Z,6.9
2022-08-04T14:17:33.000Z,6.7
2022-08-04T14:18:39.000Z,6.6
2022-08-04T14:19:45.000Z,6.9
2022-08-04T14:20:51.000Z,6.7
2022-08-04T14:21:56.000Z,6.7
2022-08-04T14:23:01.000Z,6.7
2022-08-04T14:24:07.000Z,6.6
2022-08-04T14:25:13.000Z,6.7
2022-08-04T14:26:19.000Z,6.7
2022-08-04T14:27:25.000Z,6.7
2022-08-04T14:28:32.000Z,6.7
2022-08-04T14:29:38.000Z,6.7
2022-08-04T14:30:44.000Z,6.7
2022-08-04T14:31:50.000Z,6.7
2022-08-04T14:32:56.000Z,6.7
2022-08-04T14:34:01.000Z,6.7
2022-08-04T14:35:06.000Z,6.7
2022-08-04T14:36:12.000Z,6.6
2022-08-04T14:37:18.000Z,6.7
2022-08-04T14:38:24.000Z,6.7
2022-08-04T14:39:30.000Z,6.7
2022-08-04T14:41:42.000Z,6.7
2022-08-04T14:42:49.000Z,6.7
2022-08-04T14:43:55.000Z,6.6
2022-08-04T14:45:01.000Z,6.7
2022-08-04T14:46:07.000Z,6.7
2022-08-04T14:47:13.000Z,6.7
2022-08-04T14:48:19.000Z,6.7
2022-08-04T14:49:24.000Z,6.7
2022-08-04T14:50:30.000Z,6.7
2022-08-04T14:51:36.000Z,6.7
2022-08-04T14:52:42.000Z,6.7
2022-08-04T14:53:48.000Z,6.7
2022-08-04T14:54:55.000Z,6.7
2022-08-04T14:56:01.000Z,6.7
2022-08-04T14:57:07.000Z,6.7
2022-08-04T14:58:13.000Z,6.7
2022-08-04T14:59:19.000Z,6.7
2022-08-04T15:00:25.000Z,6.7
2022-08-04T15:01:31.000Z,6.7
2022-08-04T15:03:43.000Z,6.7
2022-08-04T15:04:49.000Z,6.7
2022-08-04T15:05:55.000Z,6.7
2022-08-04T15:07:01.000Z,6.7
2022-08-04T15:08:08.000Z,6.7
2022-08-04T15:09:14.000Z,6.7
2022-08-04T15:10:20.000Z,6.7
2022-08-04T15:11:26.000Z,6.7
2022-08-04T15:12:32.000Z,6.7
2022-08-04T15:13:38.000Z,6.7
2022-08-04T15:14:44.000Z,6.7
2022-08-04T15:15:50.000Z,6.7
2022-08-04T15:18:02.000Z,6.7
2022-08-04T15:19:07.000Z,6.7
2022-08-04T15:20:13.000Z,6.7
2022-08-04T15:21:19.000Z,6.7
2022-08-04T15:22:26.000Z,6.7
2022-08-04T15:23:32.000Z,6.6
2022-08-04T15:24:38.000Z,6.7
2022-08-04T15:25:44.000Z,6.7
2022-08-04T15:26:50.000Z,6.7
2022-08-04T15:27:56.000Z,6.7
2022-08-04T15:29:02.000Z,6.7
2022-08-04T15:30:08.000Z,6.6
2022-08-04T15:31:14.000Z,6.7
2022-08-04T15:32:20.000Z,6.7
2022-08-04T15:33:25.000Z,6.7
2022-08-04T15:34:31.000Z,6.7
2022-08-04T15:35:38.000Z,6.7
2022-08-04T15:36:44.000Z,6.7
2022-08-04T15:37:50.000Z,6.7
2022-08-04T15:38:56.000Z,6.7
2022-08-04T15:40:02.000Z,6.7
2022-08-04T15:41:08.000Z,6.7
2022-08-04T15:42:14.000Z,6.7
2022-08-04T15:43:20.000Z,6.7
2022-08-04T15:44:26.000Z,6.7
2022-08-04T15:45:31.000Z,6.6
2022-08-04T15:46:37.000Z,6.7
2022-08-04T15:47:43.000Z,6.6
2022-08-04T15:48:49.000Z,6.7
2022-08-04T15:51:02.000Z,6.7
2022-08-04T15:52:07.000Z,6.7
2022-08-04T15:53:12.000Z,6.7
2022-08-04T15:54:18.000Z,6.7
2022-08-04T15:55:24.000Z,6.7
2022-08-04T15:56:30.000Z,6.7
2022-08-04T15:57:35.000Z,6.7
2022-08-04T15:58:40.000Z,6.7
2022-08-04T15:59:46.000Z,6.7
2022-08-04T16:00:52.000Z,6.7